Latest Coastal Weather Observations for Legendre Island

IDW60701

Issued at 3:02 am WST Tuesday 12 December 2017 (issued every 10 minutes, with the page automatically refreshed every 10 minutes)

About coastal observations | Map of coastal stations | Coastal observations for WA | Marine services | Other Formats
Station Details ID: 004095 Name: LEGENDRE ISLAND Lat: -20.36 Lon: 116.84 Height: 29.0 m
Data from the previous 72 hours. | See also: Recent months at Legendre Island
Date/Time
WST
Temp
°C
Wind Pressure Rain since
9am
mm
Weather Cloud Vis
km
Sea
Height
m
Swell
Dir  Spd
kts
Gust
kts
hPa Trend Height
m
Period
s
Dir
12/03:00am 25.2 WSW 15 19 1010.7 - - - - - - - - -
12/02:30am 25.3 WSW 15 19 1010.6 - - - - - - - - -
12/02:00am 25.3 WSW 16 19 1010.7 - - - - - - - - -
12/01:30am 25.4 WSW 14 17 1010.8 - - - - - - - - -
12/01:00am 25.4 WSW 15 17 1010.9 - - - - - - - - -
12/12:30am 25.4 WSW 13 16 1011.1 - - - - - - - - -
12/12:00am 25.4 WSW 14 17 1011.2 - - - - - - - - -
 
Date/Time
WST
Temp
°C
Wind Pressure Rain since
9am
mm
Weather Cloud Vis
km
Sea
Height
m
Swell
Dir  Spd
kts
Gust
kts
hPa Trend Height
m
Period
s
Dir
11/11:30pm 25.5 WSW 16 19 1011.5 - - - - - - - - -
11/11:00pm 25.6 WSW 17 21 1011.5 - - - - - - - - -
11/10:30pm 25.7 WSW 17 21 1011.9 - - - - - - - - -
11/10:00pm 25.8 WSW 18 21 1011.8 - - - - - - - - -
11/09:30pm 25.9 WSW 16 20 1011.9 - - - - - - - - -
11/09:00pm 25.9 WSW 16 18 1011.8 - - - - - - - - -
11/08:30pm 26.0 W 14 17 1011.9 - - - - - - - - -
11/08:00pm 26.0 W 13 16 1011.8 - - - - - - - - -
11/07:30pm 26.1 W 12 15 1011.7 - - - - - - - - -
11/07:00pm 26.0 W 13 15 1011.2 - - - - - - - - -
11/06:30pm 26.4 W 14 17 1010.7 - - - - - - - - -
11/06:00pm 27.1 W 13 17 1010.4 - - - - - - - - -
11/05:30pm 27.8 W 15 18 1010.0 - - - - - - - - -
11/05:00pm 28.1 W 15 17 1009.9 - - - - - - - - -
11/04:30pm 28.6 W 15 18 1009.8 - - - - - - - - -
11/04:00pm 29.0 W 15 18 1009.9 - - - - - - - - -
11/03:30pm 29.4 WSW 14 16 1009.8 - - - - - - - - -
11/03:00pm 29.3 WSW 14 17 1009.8 - - - - - - - - -
11/02:30pm 30.1 W 13 16 1010.2 - - - - - - - - -
11/02:00pm 29.7 W 12 16 1010.3 - - - - - - - - -
11/01:30pm 29.7 WSW 13 17 1010.5 - - - - - - - - -
11/01:00pm 30.0 WSW 12 15 1010.7 - - - - - - - - -
11/12:30pm 30.1 WSW 11 14 1011.2 - - - - - - - - -
11/12:00pm 29.7 WSW 12 15 1011.6 - - - - - - - - -
11/11:30am 29.1 WSW 11 14 1011.9 - - - - - - - - -
11/11:00am 29.5 WSW 10 12 1012.3 - - - - - - - - -
11/10:30am 29.1 WSW 12 14 1012.4 - - - - - - - - -
11/10:00am 28.9 WSW 13 16 1012.5 - - - - - - - - -
11/09:30am 28.5 WSW 11 14 1012.8 - - - - - - - - -
11/09:00am 28.5 WSW 11 14 1012.8 - - - - - - - - -
11/08:30am 28.0 WSW 12 16 1012.8 - - - - - - - - -
11/08:00am 27.9 WSW 13 16 1012.6 - - - - - - - - -
11/07:30am 27.1 WSW 14 16 1012.5 - - - - - - - - -
11/07:00am 26.2 WSW 14 17 1012.2 - - - - - - - - -
11/06:30am 26.0 WSW 15 18 1011.7 - - - - - - - - -
11/06:00am 25.3 WSW 12 15 1011.9 - - - - - - - - -
11/05:30am 25.0 WSW 13 16 1011.6 - - - - - - - - -
11/05:00am 24.9 WSW 12 15 1011.3 - - - - - - - - -
11/04:30am 24.9 WSW 12 16 1010.9 - - - - - - - - -
11/04:00am 24.9 WSW 13 16 1010.7 - - - - - - - - -
11/03:30am 24.9 WSW 12 15 1010.7 - - - - - - - - -
11/03:00am 25.0 WSW 12 14 1010.7 - - - - - - - - -
11/02:30am 24.9 WSW 12 15 1010.8 - - - - - - - - -
11/02:00am 25.0 WSW 13 16 1010.7 - - - - - - - - -
11/01:30am 25.1 WSW 14 17 1010.8 - - - - - - - - -
11/01:00am 25.2 WSW 14 18 1011.1 - - - - - - - - -
11/12:30am 25.3 WSW 13 16 1011.4 - - - - - - - - -
11/12:00am 25.2 W 12 15 1011.9 - - - - - - - - -
 
Date/Time
WST
Temp
°C
Wind Pressure Rain since
9am
mm
Weather Cloud Vis
km
Sea
Height
m
Swell
Dir  Spd
kts
Gust
kts
hPa Trend Height
m
Period
s
Dir
10/11:30pm 25.5 WSW 15 18 1011.9 - - - - - - - - -
10/11:00pm 25.5 WSW 15 18 1012.1 - - - - - - - - -
10/10:30pm 25.6 WSW 15 19 1012.1 - - - - - - - - -
10/10:00pm 25.8 WSW 15 17 1012.1 - - - - - - - - -
10/09:30pm 25.8 WSW 14 17 1011.8 - - - - - - - - -
10/09:00pm 25.9 W 14 17 1011.7 - - - - - - - - -
10/08:30pm 25.9 W 13 17 1011.6 - - - - - - - - -
10/08:00pm 26.0 W 13 16 1011.5 - - - - - - - - -
10/07:30pm 25.9 W 12 15 1011.2 - - - - - - - - -
10/07:00pm 26.0 W 14 16 1010.9 - - - - - - - - -
10/06:30pm 26.5 W 12 15 1010.8 - - - - - - - - -
10/06:00pm 27.3 W 12 15 1010.6 - - - - - - - - -
10/05:30pm 27.7 W 12 15 1010.6 - - - - - - - - -
10/05:00pm 28.3 W 15 18 1010.3 - - - - - - - - -
10/04:30pm 29.2 W 14 17 1010.1 - - - - - - - - -
10/04:00pm 29.5 WNW 14 17 1010.2 - - - - - - - - -
10/03:30pm 29.3 WNW 13 16 1010.5 - - - - - - - - -
10/03:00pm 29.1 NW 13 16 1010.6 - - - - - - - - -
10/02:30pm 29.6 WNW 14 16 1010.8 - - - - - - - - -
10/02:00pm 30.0 W 15 19 1010.1 - - - - - - - - -
10/01:30pm 30.6 WNW 16 20 1010.0 - - - - - - - - -
10/01:00pm 30.9 W 16 19 1010.1 - - - - - - - - -
10/12:30pm 30.9 WNW 12 15 1010.6 - - - - - - - - -
10/12:00pm 30.1 WNW 11 15 1011.0 - - - - - - - - -
10/11:30am 29.8 WSW 9 12 1011.3 - - - - - - - - -
10/11:00am 29.2 WSW 8 12 1011.6 - - - - - - - - -
10/10:30am 29.5 WSW 9 13 1011.8 - - - - - - - - -
10/10:00am 29.6 SW 10 12 1011.7 - - - - - - - - -
10/09:30am 28.6 SW 10 14 1011.8 - - - - - - - - -
10/09:00am 28.0 SW 15 19 1010.7 - - - - - - - - -
10/08:30am 27.6 SW 15 20 1010.8 - - - - - - - - -
10/08:00am 27.2 SW 15 19 1010.9 - - - - - - - - -
10/07:30am 26.4 SW 17 21 1010.4 - - - - - - - - -
10/07:00am 26.2 SW 18 22 1009.8 - - - - - - - - -
10/06:30am 26.0 SW 19 25 1009.3 - - - - - - - - -
10/06:00am 25.6 WSW 19 25 1009.1 - - - - - - - - -
10/05:30am 25.4 WSW 22 29 1008.3 - - - - - - - - -
10/05:00am 25.3 WSW 23 28 1007.8 - - - - - - - - -
10/04:30am 25.4 WSW 22 28 1007.8 - - - - - - - - -
10/04:00am 25.5 WSW 23 28 1007.9 - - - - - - - - -
10/03:30am 25.4 WSW 20 25 1008.2 - - - - - - - - -
10/03:00am 25.5 WSW 19 23 1008.5 - - - - - - - - -
10/02:30am 25.5 WSW 18 22 1008.5 - - - - - - - - -
10/02:00am 25.5 WSW 18 23 1008.6 - - - - - - - - -
10/01:30am 25.5 WSW 16 19 1008.9 - - - - - - - - -
10/01:00am 25.6 WSW 17 20 1008.8 - - - - - - - - -
10/12:30am 25.6 WSW 14 17 1009.1 - - - - - - - - -
10/12:00am 25.8 WSW 14 18 1009.2 - - - - - - - - -
 
Date/Time
WST
Temp
°C
Wind Pressure Rain since
9am
mm
Weather Cloud Vis
km
Sea
Height
m
Swell
Dir  Spd
kts
Gust
kts
hPa Trend Height
m
Period
s
Dir
09/11:30pm 25.8 WSW 14 18 1009.0 - - - - - - - - -
09/11:00pm 25.8 WSW 14 19 1009.1 - - - - - - - - -
09/10:30pm 26.0 WSW 15 19 1009.2 - - - - - - - - -
09/10:00pm 26.2 WSW 17 21 1009.0 - - - - - - - - -
09/09:30pm 26.3 W 16 21 1009.0 - - - - - - - - -
09/09:00pm 26.2 W 17 19 1008.8 - - - - - - - - -
09/08:30pm 26.3 W 17 20 1008.6 - - - - - - - - -
09/08:00pm 26.3 W 16 19 1008.6 - - - - - - - - -
09/07:30pm 26.4 W 16 19 1008.5 - - - - - - - - -
09/07:00pm 26.6 WSW 16 19 1008.0 - - - - - - - - -
09/06:30pm 27.0 W 16 19 1007.7 - - - - - - - - -
09/06:00pm 27.7 W 17 19 1007.4 - - - - - - - - -
09/05:30pm 28.2 W 15 18 1007.3 - - - - - - - - -
09/05:00pm 28.8 W 16 18 1007.2 - - - - - - - - -
09/04:30pm 29.2 W 16 18 1007.1 - - - - - - - - -
09/04:00pm 29.5 W 15 18 1007.2 - - - - - - - - -
09/03:30pm 30.0 W 15 18 1007.3 - - - - - - - - -
09/03:00pm 29.6 W 16 19 1007.6 - - - - - - - - -
09/02:30pm 30.3 W 15 17 1007.7 - - - - - - - - -
09/02:00pm 30.6 W 14 17 1007.9 - - - - - - - - -
09/01:30pm 31.5 W 14 17 1008.1 - - - - - - - - -
09/01:00pm 30.8 WSW 14 16 1008.3 - - - - - - - - -
09/12:30pm 30.7 W 13 16 1008.7 - - - - - - - - -
09/12:00pm 30.8 W 11 14 1008.9 - - - - - - - - -
09/11:30am 31.1 W 11 13 1009.2 - - - - - - - - -
09/11:00am 30.3 WSW 11 14 1009.5 - - - - - - - - -
09/10:30am 30.4 W 11 14 1009.8 - - - - - - - - -
09/10:00am 29.7 W 10 13 1010.2 - - - - - - - - -
09/09:30am 29.7 W 10 13 1010.2 - - - - - - - - -
09/09:00am 29.5 W 11 14 1010.2 - - - - - - - - -
09/08:30am 28.9 WSW 11 13 1010.3 - - - - - - - - -
09/08:00am 28.9 WSW 8 10 1010.4 - - - - - - - - -
09/07:30am 28.3 W 9 11 1010.2 - - - - - - - - -
09/07:00am 27.6 W 8 10 1010.1 - - - - - - - - -
09/06:30am 26.6 W 9 10 1009.9 - - - - - - - - -
09/06:00am 26.0 W 9 11 1009.7 - - - - - - - - -
09/05:30am 25.9 W 10 11 1009.3 - - - - - - - - -
09/05:00am 25.9 W 11 13 1008.9 - - - - - - - - -
09/04:30am 25.9 W 12 15 1008.5 - - - - - - - - -
09/04:00am 26.1 W 12 15 1008.4 - - - - - - - - -
09/03:30am 26.3 W 11 14 1008.5 - - - - - - - - -

Other Formats:

Comma delimited format used in spreadsheet applications
http://www.bom.gov.au/fwo/IDW60701/IDW60701.94307.axf

JavaScript Object Notation format (JSON) in row-major order
http://www.bom.gov.au/fwo/IDW60701/IDW60701.94307.json